Time;durP1;ratioP1;P1;durP2;ratioP2;P2;SDS_P1;SDS_P2;PMS_P1;PMS_P2;Temp;Humidity;BMP_temperature;BMP_pressure;BME280_temperature;BME280_humidity;BME280_pressure;Samples;Min_cycle;Max_cycle;Signal;HPM_P1;HPM_P2
2021/03/07 00:00:23;;;;;;;13.52;9.63;;;0.70;99.50;;;;;;2079929;28;20021;-74
2021/03/07 00:01:29;;;;;;;12.25;9.50;;;0.70;99.90;;;;;;2077231;28;20049;-74
2021/03/07 00:02:30;;;;;;;11.75;8.90;;;0.70;99.40;;;;;;2081027;28;20021;-74
2021/03/07 00:03:40;;;;;;;13.82;9.88;;;0.70;99.30;;;;;;2080783;28;20027;-74
2021/03/07 00:04:44;;;;;;;13.05;9.98;;;0.70;99.70;;;;;;2080928;28;20026;-74
2021/03/07 00:05:46;;;;;;;12.80;9.20;;;0.70;99.70;;;;;;2080957;28;20092;-74
2021/03/07 00:06:52;;;;;;;13.43;9.48;;;0.70;99.90;;;;;;2080599;28;20155;-75
2021/03/07 00:07:55;;;;;;;12.23;9.50;;;0.70;99.90;;;;;;2080681;28;20087;-74
2021/03/07 00:09:19;;;;;;;13.77;9.65;;;0.70;99.90;;;;;;2080300;28;20033;-74
2021/03/07 00:10:26;;;;;;;11.10;9.45;;;0.70;99.90;;;;;;2080682;28;20040;-74
2021/03/07 00:11:32;;;;;;;12.77;9.52;;;0.70;99.90;;;;;;2081057;28;20021;-74
2021/03/07 00:12:36;;;;;;;13.35;8.93;;;0.70;99.90;;;;;;2080264;28;20032;-74
2021/03/07 00:13:37;;;;;;;11.80;9.73;;;0.70;99.90;;;;;;2080244;28;20072;-74
2021/03/07 00:14:43;;;;;;;13.90;10.57;;;0.60;99.90;;;;;;2081064;28;20026;-74
2021/03/07 00:15:44;;;;;;;11.88;9.43;;;0.60;99.90;;;;;;2080961;28;20100;-74
2021/03/07 00:16:45;;;;;;;12.45;9.48;;;0.60;99.90;;;;;;2080434;28;20026;-75
2021/03/07 00:17:50;;;;;;;11.52;9.55;;;0.60;99.90;;;;;;2080801;28;20018;-74
2021/03/07 00:18:54;;;;;;;12.13;9.85;;;0.60;99.90;;;;;;2080623;28;20017;-74
2021/03/07 00:19:55;;;;;;;11.70;9.48;;;0.60;99.90;;;;;;2080778;28;20060;-74
2021/03/07 00:20:56;;;;;;;12.60;9.43;;;0.60;99.90;;;;;;2080779;28;20010;-74
2021/03/07 00:22:00;;;;;;;13.20;9.18;;;0.60;99.80;;;;;;2081031;28;20029;-74
2021/03/07 00:23:04;;;;;;;10.18;8.32;;;0.60;99.70;;;;;;2080813;28;20522;-75
2021/03/07 00:24:08;;;;;;;10.82;9.18;;;0.60;99.50;;;;;;2080813;28;20025;-74
2021/03/07 00:25:15;;;;;;;9.27;8.38;;;0.60;99.50;;;;;;2080502;28;20021;-74
2021/03/07 00:26:16;;;;;;;12.85;9.57;;;0.60;99.50;;;;;;2081046;28;20026;-74
2021/03/07 00:27:21;;;;;;;12.32;9.40;;;0.60;99.80;;;;;;2080364;28;20036;-74
2021/03/07 00:28:22;;;;;;;9.98;8.85;;;0.60;99.90;;;;;;2080520;28;20036;-74
2021/03/07 00:29:32;;;;;;;15.80;10.25;;;0.60;99.90;;;;;;2080311;28;20031;-74
2021/03/07 00:30:38;;;;;;;;;;;0.60;99.90;;;;;;2081026;28;20030;-74
2021/03/07 00:31:42;;;;;;;13.68;8.98;;;0.50;99.90;;;;;;2080706;28;19917;-73
2021/03/07 00:32:47;;;;;;;12.63;8.60;;;0.50;99.90;;;;;;2080608;28;20071;-73
2021/03/07 00:33:48;;;;;;;10.75;8.32;;;0.50;99.90;;;;;;2080642;28;20018;-74
2021/03/07 00:34:49;;;;;;;10.13;8.57;;;0.50;99.90;;;;;;2080545;28;20043;-74
2021/03/07 00:36:02;;;;;;;10.50;8.98;;;0.50;99.90;;;;;;2079803;28;20033;-74
2021/03/07 00:37:08;;;;;;;9.63;8.35;;;0.50;99.90;;;;;;2079821;28;20022;-74
2021/03/07 00:38:09;;;;;;;11.60;8.52;;;0.50;99.90;;;;;;2080414;28;20026;-74
2021/03/07 00:39:18;;;;;;;11.88;8.70;;;0.50;99.90;;;;;;2080480;28;20048;-73
2021/03/07 00:40:34;;;;;;;10.48;8.90;;;0.50;99.90;;;;;;2080032;28;20029;-74
2021/03/07 00:41:35;;;;;;;13.13;9.02;;;0.50;99.90;;;;;;2080134;28;20096;-74
2021/03/07 00:42:46;;;;;;;12.18;8.25;;;0.40;99.90;;;;;;2080672;28;20079;-74
2021/03/07 00:43:55;;;;;;;11.23;8.55;;;0.40;99.90;;;;;;2080187;28;20473;-74
2021/03/07 00:44:57;;;;;;;11.20;9.02;;;0.40;99.90;;;;;;2080119;28;20026;-75
2021/03/07 00:46:05;;;;;;;11.73;8.48;;;0.40;99.90;;;;;;2079716;28;20420;-74
2021/03/07 00:47:24;;;;;;;11.90;8.85;;;0.40;99.90;;;;;;2079952;28;20116;-74
2021/03/07 00:48:28;;;;;;;11.95;9.23;;;0.40;99.90;;;;;;2080605;28;20036;-74
2021/03/07 00:49:34;;;;;;;11.27;8.82;;;0.40;99.90;;;;;;2079976;28;20068;-74
2021/03/07 00:50:38;;;;;;;9.85;8.10;;;0.40;99.90;;;;;;2080614;28;20018;-74
2021/03/07 00:51:44;;;;;;;12.25;9.27;;;0.40;99.90;;;;;;2080618;28;20049;-73
2021/03/07 00:52:51;;;;;;;10.43;8.30;;;0.40;99.90;;;;;;2080556;28;20216;-74
2021/03/07 00:53:52;;;;;;;10.57;7.55;;;0.30;99.90;;;;;;2080412;28;20071;-74
2021/03/07 00:59:31;;;;;;;9.75;8.00;;;0.30;99.90;;;;;;2080663;28;20034;-74
2021/03/07 01:00:32;;;;;;;9.27;8.30;;;0.20;99.90;;;;;;2080405;28;20060;-74
2021/03/07 01:01:33;;;;;;;11.15;8.63;;;0.20;99.90;;;;;;2080434;28;20477;-74
2021/03/07 01:02:37;;;;;;;11.23;8.38;;;0.20;99.90;;;;;;2080500;28;20028;-73
2021/03/07 01:03:45;;;;;;;8.80;7.90;;;0.20;99.90;;;;;;2079716;28;20032;-74
2021/03/07 01:04:52;;;;;;;13.52;8.82;;;0.20;99.90;;;;;;2079466;28;20029;-74
2021/03/07 01:06:05;;;;;;;10.43;8.75;;;0.20;99.90;;;;;;2079874;28;20021;-74
2021/03/07 01:07:08;;;;;;;10.40;8.07;;;0.20;99.90;;;;;;2080152;28;20052;-74
2021/03/07 01:08:21;;;;;;;10.23;9.00;;;0.20;99.90;;;;;;2080212;28;20432;-74
2021/03/07 01:09:25;;;;;;;11.15;8.70;;;0.20;99.90;;;;;;2080028;28;20029;-74
2021/03/07 01:10:49;;;;;;;11.88;8.98;;;0.20;99.90;;;;;;2079865;28;20094;-74
2021/03/07 01:11:55;;;;;;;11.70;9.40;;;0.20;99.90;;;;;;2080365;28;20022;-74
2021/03/07 01:13:16;;;;;;;13.15;9.18;;;0.10;99.90;;;;;;2080469;28;20017;-74
2021/03/07 01:14:22;;;;;;;11.80;8.85;;;0.10;99.90;;;;;;2080334;28;20040;-74
2021/03/07 01:15:42;;;;;;;13.45;9.35;;;0.10;99.90;;;;;;2080022;28;20024;-74
2021/03/07 01:16:44;;;;;;;12.68;10.20;;;0.10;99.90;;;;;;2079513;28;20025;-74
2021/03/07 01:17:54;;;;;;;10.65;7.95;;;0.10;99.90;;;;;;2080147;28;20028;-74
2021/03/07 01:19:09;;;;;;;10.88;8.55;;;0.10;99.90;;;;;;2079637;28;20119;-74
2021/03/07 01:20:17;;;;;;;11.38;8.65;;;0.10;99.90;;;;;;2079716;28;20022;-73
2021/03/07 01:21:26;;;;;;;12.55;8.60;;;0.10;99.90;;;;;;2080061;28;20022;-73
2021/03/07 01:22:49;;;;;;;10.20;9.13;;;0.10;99.90;;;;;;2080534;28;20021;-74
2021/03/07 01:23:53;;;;;;;12.80;8.80;;;0.10;99.90;;;;;;2079713;28;20026;-73
2021/03/07 01:25:02;;;;;;;12.90;9.00;;;0.10;99.90;;;;;;2079498;28;20017;-73
2021/03/07 01:31:43;;;;;;;10.93;9.18;;;0.00;99.90;;;;;;2080025;28;20022;-74
2021/03/07 01:33:07;;;;;;;11.07;9.05;;;-0.10;99.90;;;;;;2080310;28;20030;-74
2021/03/07 01:34:08;;;;;;;11.50;8.95;;;-0.10;99.90;;;;;;2080256;28;20102;-73
2021/03/07 01:35:09;;;;;;;12.38;9.32;;;-0.10;99.90;;;;;;2080176;28;20033;-74
2021/03/07 01:36:10;;;;;;;14.00;8.80;;;-0.10;99.90;;;;;;2080192;28;20022;-73
2021/03/07 01:37:14;;;;;;;14.52;9.63;;;0.00;99.90;;;;;;2079815;28;20076;-73
2021/03/07 01:38:17;;;;;;;11.20;9.65;;;-0.10;99.90;;;;;;2079704;28;20046;-73
2021/03/07 01:39:18;;;;;;;11.20;9.40;;;-0.10;99.90;;;;;;2080162;28;20017;-74
2021/03/07 01:40:32;;;;;;;12.77;9.23;;;-0.10;99.90;;;;;;2080273;28;20029;-73
2021/03/07 01:41:36;;;;;;;9.60;8.38;;;-0.10;99.90;;;;;;2080503;28;20029;-73
2021/03/07 01:42:37;;;;;;;11.07;9.18;;;-0.10;99.90;;;;;;2081197;28;20032;-74
2021/03/07 01:43:44;;;;;;;15.35;9.52;;;0.00;99.90;;;;;;2080978;28;20072;-74
2021/03/07 01:44:50;;;;;;;9.75;8.75;;;0.00;99.90;;;;;;2080681;28;20029;-74
2021/03/07 01:45:52;;;;;;;11.45;9.57;;;0.00;99.90;;;;;;2080072;28;20053;-74
2021/03/07 01:46:53;;;;;;;12.90;9.80;;;0.00;99.90;;;;;;2079869;28;20021;-74
2021/03/07 01:48:02;;;;;;;12.68;9.07;;;0.00;99.90;;;;;;2080122;28;20025;-74
2021/03/07 01:49:03;;;;;;;13.10;9.73;;;-0.10;99.90;;;;;;2079395;28;20045;-74
2021/03/07 01:50:05;;;;;;;10.57;8.88;;;-0.10;99.90;;;;;;2079536;28;20101;-74
2021/03/07 01:51:06;;;;;;;11.80;9.50;;;-0.10;99.90;;;;;;2080044;28;20032;-74
2021/03/07 01:52:09;;;;;;;10.75;9.38;;;-0.10;99.90;;;;;;2080038;28;20052;-74
2021/03/07 01:53:10;;;;;;;13.48;9.63;;;-0.10;99.90;;;;;;2079935;28;20036;-74
2021/03/07 01:54:14;;;;;;;9.57;8.57;;;0.00;99.90;;;;;;2079693;28;20101;-74
2021/03/07 01:55:27;;;;;;;12.60;9.40;;;0.00;99.90;;;;;;2079082;28;20730;-74
2021/03/07 01:56:31;;;;;;;9.70;8.70;;;-0.10;99.90;;;;;;2079286;28;20038;-73
2021/03/07 01:58:00;;;;;;;11.93;10.45;;;-0.10;99.90;;;;;;2079013;28;20033;-73
2021/03/07 01:59:08;;;;;;;11.48;9.60;;;-0.10;99.90;;;;;;2079673;28;20029;-74
2021/03/07 02:00:13;;;;;;;11.40;8.93;;;-0.10;99.90;;;;;;2080231;28;20641;-74
2021/03/07 02:01:16;;;;;;;9.93;8.80;;;-0.10;99.90;;;;;;2079810;28;20507;-73
2021/03/07 02:02:28;;;;;;;12.50;9.45;;;-0.10;99.90;;;;;;2080126;28;20025;-74
2021/03/07 02:03:35;;;;;;;12.38;11.10;;;-0.10;99.90;;;;;;2078905;28;20041;-74
2021/03/07 02:04:38;;;;;;;11.85;9.52;;;-0.10;99.90;;;;;;2079688;28;20544;-74
2021/03/07 02:05:48;;;;;;;13.30;9.55;;;-0.10;99.90;;;;;;2079941;28;20596;-73
2021/03/07 02:06:55;;;;;;;16.10;11.55;;;-0.20;99.90;;;;;;2079784;28;20468;-74
2021/03/07 02:07:56;;;;;;;10.75;9.65;;;-0.20;99.90;;;;;;2080042;28;20025;-74
2021/03/07 02:09:00;;;;;;;11.40;9.23;;;-0.20;99.90;;;;;;2080071;28;20042;-74
2021/03/07 02:10:15;;;;;;;15.02;11.48;;;-0.20;99.90;;;;;;2080250;28;20028;-75
2021/03/07 02:11:18;;;;;;;12.57;9.15;;;-0.20;99.90;;;;;;2079988;28;20032;-74
2021/03/07 02:12:25;;;;;;;13.35;10.43;;;-0.20;99.90;;;;;;2079496;28;20638;-74
2021/03/07 02:13:43;;;;;;;11.13;9.57;;;-0.20;99.90;;;;;;2079605;28;20100;-74
2021/03/07 02:14:45;;;;;;;14.75;10.95;;;-0.20;99.90;;;;;;2079425;28;20465;-74
2021/03/07 02:15:52;;;;;;;12.68;10.95;;;-0.20;99.90;;;;;;2079124;28;20469;-74
2021/03/07 02:16:57;;;;;;;11.77;10.05;;;-0.20;99.90;;;;;;2079619;28;20047;-74
2021/03/07 02:18:04;;;;;;;12.52;10.27;;;-0.30;99.90;;;;;;2080150;28;20477;-74
2021/03/07 02:19:08;;;;;;;11.02;9.60;;;-0.20;99.90;;;;;;2079885;28;20020;-74
2021/03/07 02:20:12;;;;;;;12.48;10.02;;;-0.30;99.90;;;;;;2080335;28;20117;-74
2021/03/07 02:21:35;;;;;;;17.38;12.30;;;-0.30;99.90;;;;;;2080905;28;20531;-74
2021/03/07 02:22:52;;;;;;;13.32;10.63;;;-0.30;99.90;;;;;;2079359;28;20022;-75
2021/03/07 02:24:08;;;;;;;16.85;12.20;;;-0.30;99.90;;;;;;2080698;28;20068;-74
2021/03/07 02:25:19;;;;;;;11.52;9.80;;;-0.30;99.90;;;;;;2080710;28;20485;-74
2021/03/07 02:26:26;;;;;;;13.82;10.82;;;-0.30;99.90;;;;;;2081113;28;20554;-74
2021/03/07 02:27:35;;;;;;;12.50;10.05;;;-0.30;99.90;;;;;;2081411;28;20026;-74
2021/03/07 02:28:59;;;;;;;13.38;10.13;;;-0.30;99.90;;;;;;2080644;28;20029;-74
2021/03/07 02:30:08;;;;;;;14.82;11.15;;;-0.30;99.90;;;;;;2080957;28;20029;-74
2021/03/07 02:35:06;;;;;;;15.38;10.45;;;-0.40;99.90;;;;;;2081584;28;20042;-75
2021/03/07 02:36:19;;;;;;;12.50;10.52;;;-0.50;99.90;;;;;;2081413;28;20032;-75
2021/03/07 02:37:30;;;;;;;15.52;9.95;;;-0.50;99.90;;;;;;2080972;28;20021;-74
2021/03/07 02:38:46;;;;;;;16.05;12.50;;;-0.50;99.90;;;;;;2080647;28;20048;-74
2021/03/07 02:39:52;;;;;;;12.10;9.88;;;-0.50;99.90;;;;;;2081008;28;20022;-74
2021/03/07 02:40:57;;;;;;;11.38;10.07;;;-0.50;99.90;;;;;;2081559;28;20052;-74
2021/03/07 02:42:42;;;;;;;14.85;11.90;;;-0.50;99.90;;;;;;2081579;28;20014;-74
2021/03/07 02:43:49;;;;;;;14.27;11.27;;;-0.50;99.90;;;;;;2078102;28;20037;-74
2021/03/07 02:44:56;;;;;;;18.70;11.43;;;-0.50;99.90;;;;;;2081409;28;20498;-74
2021/03/07 02:46:05;;;;;;;17.15;12.32;;;-0.50;99.90;;;;;;2081565;28;20025;-73
2021/03/07 02:47:17;;;;;;;17.02;11.75;;;-0.50;99.90;;;;;;2081149;28;20112;-74
2021/03/07 02:48:22;;;;;;;16.40;13.52;;;-0.50;99.90;;;;;;2081269;28;20412;-73
2021/03/07 02:49:34;;;;;;;14.32;11.70;;;-0.50;99.90;;;;;;2081595;28;20084;-74
2021/03/07 02:50:46;;;;;;;15.07;11.07;;;-0.50;99.90;;;;;;2080749;28;20029;-74
2021/03/07 02:51:51;;;;;;;19.40;13.60;;;-0.50;99.90;;;;;;2080937;28;20128;-74
2021/03/07 02:52:57;;;;;;;16.40;11.23;;;-0.50;99.90;;;;;;2081369;28;20025;-73
2021/03/07 02:54:07;;;;;;;15.50;11.73;;;-0.50;99.90;;;;;;2081381;28;20384;-74
2021/03/07 02:55:12;;;;;;;15.15;11.95;;;-0.50;99.90;;;;;;2081573;28;20083;-74
2021/03/07 02:56:29;;;;;;;19.52;14.80;;;-0.50;99.90;;;;;;2081370;28;20048;-74
2021/03/07 02:57:38;;;;;;;15.25;12.85;;;-0.50;99.90;;;;;;2080989;28;20108;-74
2021/03/07 02:58:45;;;;;;;16.05;13.50;;;-0.50;99.90;;;;;;2081188;28;20025;-74
2021/03/07 02:59:51;;;;;;;17.48;12.13;;;-0.50;99.90;;;;;;2081344;28;20018;-74
2021/03/07 03:00:58;;;;;;;15.88;11.93;;;-0.50;99.90;;;;;;2081681;28;20018;-74
2021/03/07 03:02:10;;;;;;;15.55;12.68;;;-0.50;99.90;;;;;;2081908;28;20079;-73
2021/03/07 03:03:11;;;;;;;14.55;12.35;;;-0.50;99.90;;;;;;2082159;28;20539;-73
2021/03/07 03:04:16;;;;;;;14.88;12.32;;;-0.50;99.90;;;;;;2081937;28;20026;-74
2021/03/07 03:05:18;;;;;;;16.88;12.70;;;-0.50;99.90;;;;;;2081950;28;20024;-74
2021/03/07 03:06:20;;;;;;;17.40;12.48;;;-0.50;99.90;;;;;;2081349;28;20036;-74
2021/03/07 03:07:27;;;;;;;18.25;13.38;;;-0.50;99.90;;;;;;2080858;28;20021;-74
2021/03/07 03:08:31;;;;;;;18.00;13.50;;;-0.50;99.90;;;;;;2081789;28;20045;-74
2021/03/07 03:09:40;;;;;;;14.48;11.55;;;-0.40;99.90;;;;;;2081703;28;20025;-74
2021/03/07 03:10:44;;;;;;;14.30;11.05;;;-0.40;99.90;;;;;;2082017;28;20022;-74
2021/03/07 03:11:59;;;;;;;16.25;11.93;;;-0.50;99.90;;;;;;2081117;28;20105;-74
2021/03/07 03:13:01;;;;;;;16.98;11.88;;;-0.50;99.90;;;;;;2081335;28;20381;-74
2021/03/07 03:14:09;;;;;;;17.10;12.75;;;-0.50;99.90;;;;;;2081820;28;20022;-74
2021/03/07 03:15:11;;;;;;;15.45;11.63;;;-0.50;99.90;;;;;;2081948;28;20032;-74
2021/03/07 03:16:14;;;;;;;17.08;13.50;;;-0.50;99.90;;;;;;2081753;28;20032;-74
2021/03/07 03:17:16;;;;;;;15.95;11.18;;;-0.50;99.90;;;;;;2079458;28;20033;-74
2021/03/07 03:18:29;;;;;;;17.65;12.65;;;-0.50;99.90;;;;;;2081060;28;20028;-73
2021/03/07 03:19:36;;;;;;;16.00;12.18;;;-0.50;99.90;;;;;;2081882;28;20018;-73
2021/03/07 03:20:43;;;;;;;19.08;14.43;;;-0.50;99.90;;;;;;2081943;28;20101;-74
2021/03/07 03:21:48;;;;;;;14.48;12.30;;;-0.50;99.90;;;;;;2080953;28;20405;-74
2021/03/07 03:23:01;;;;;;;19.92;14.15;;;-0.50;99.90;;;;;;2081910;28;20057;-74
2021/03/07 03:24:15;;;;;;;17.63;12.38;;;-0.50;99.90;;;;;;2081681;28;20013;-74
2021/03/07 03:25:22;;;;;;;16.98;12.50;;;-0.60;99.90;;;;;;2081003;28;20523;-74
2021/03/07 03:26:24;;;;;;;18.40;13.32;;;-0.50;99.90;;;;;;2081293;28;20035;-74
2021/03/07 03:27:25;;;;;;;17.75;14.75;;;-0.60;99.90;;;;;;2081452;28;20029;-74
2021/03/07 03:28:28;;;;;;;15.00;12.23;;;-0.60;99.90;;;;;;2081697;28;20033;-74
2021/03/07 03:29:35;;;;;;;14.77;10.45;;;-0.60;99.90;;;;;;2081804;28;20052;-74
2021/03/07 03:30:41;;;;;;;16.20;11.02;;;-0.50;99.90;;;;;;2082003;28;20530;-73
2021/03/07 03:31:51;;;;;;;17.88;14.77;;;-0.60;99.90;;;;;;2080931;28;20033;-74
2021/03/07 03:32:52;;;;;;;18.85;12.85;;;-0.60;99.90;;;;;;2080146;28;20053;-74
2021/03/07 03:33:56;;;;;;;18.92;13.27;;;-0.60;99.90;;;;;;2080629;28;20477;-74
2021/03/07 03:35:03;;;;;;;14.90;13.30;;;-0.60;99.90;;;;;;2081299;28;20021;-74
2021/03/07 03:36:05;;;;;;;15.70;12.18;;;-0.60;99.90;;;;;;2081260;28;20027;-74
2021/03/07 03:37:11;;;;;;;19.98;14.85;;;-0.60;99.90;;;;;;2080247;28;20070;-74
2021/03/07 03:38:21;;;;;;;20.00;14.63;;;-0.60;99.90;;;;;;2081047;28;20021;-74
2021/03/07 03:39:23;;;;;;;;;;;-0.60;99.90;;;;;;2081827;28;20500;-74
2021/03/07 03:40:27;;;;;;;15.75;13.32;;;-0.70;99.90;;;;;;2081885;28;19948;-73
2021/03/07 03:41:33;;;;;;;14.70;11.48;;;-0.70;99.90;;;;;;2081574;28;20022;-74
2021/03/07 03:42:42;;;;;;;20.05;15.00;;;-0.70;99.90;;;;;;2081868;28;20420;-74
2021/03/07 03:43:51;;;;;;;15.50;11.98;;;-0.70;99.90;;;;;;2081606;28;20515;-73
2021/03/07 03:44:59;;;;;;;17.70;13.60;;;-0.70;99.90;;;;;;2081426;28;20021;-74
2021/03/07 03:46:03;;;;;;;19.52;13.13;;;-0.70;99.90;;;;;;2081615;28;20502;-74
2021/03/07 03:47:12;;;;;;;15.60;12.13;;;-0.70;99.90;;;;;;2081256;28;20026;-73
2021/03/07 03:48:18;;;;;;;17.50;13.35;;;-0.70;99.90;;;;;;2080759;28;20172;-74
2021/03/07 03:49:28;;;;;;;16.88;13.07;;;-0.70;99.90;;;;;;2081236;28;20036;-74
2021/03/07 03:50:33;;;;;;;17.60;13.15;;;-0.70;99.90;;;;;;2081641;28;20029;-74
2021/03/07 03:51:37;;;;;;;17.27;14.23;;;-0.70;99.90;;;;;;2080434;28;20040;-73
2021/03/07 03:52:39;;;;;;;16.10;12.73;;;-0.70;99.90;;;;;;2080877;28;20416;-73
2021/03/07 03:53:46;;;;;;;15.32;12.65;;;-0.70;99.90;;;;;;2080775;28;20093;-74
2021/03/07 03:55:05;;;;;;;17.85;14.10;;;-0.70;99.90;;;;;;2081127;28;20025;-74
2021/03/07 03:56:07;;;;;;;16.98;12.68;;;-0.70;99.90;;;;;;2081601;28;20030;-74
2021/03/07 03:57:10;;;;;;;16.27;13.10;;;-0.70;99.90;;;;;;2081264;28;20026;-74
2021/03/07 03:58:11;;;;;;;18.13;12.35;;;-0.70;99.90;;;;;;2081410;28;20522;-75
2021/03/07 03:59:23;;;;;;;16.40;12.93;;;-0.70;99.90;;;;;;2081664;28;20100;-74
2021/03/07 04:00:27;;;;;;;17.65;13.68;;;-0.70;99.90;;;;;;2081528;28;20021;-74
2021/03/07 04:01:29;;;;;;;18.65;13.48;;;-0.70;99.90;;;;;;2081607;28;20047;-74
2021/03/07 04:02:34;;;;;;;17.90;12.75;;;-0.70;99.90;;;;;;2080894;28;20030;-73
2021/03/07 04:03:36;;;;;;;16.98;12.25;;;-0.70;99.90;;;;;;2080931;28;20064;-74
2021/03/07 04:04:44;;;;;;;15.50;12.18;;;-0.70;99.90;;;;;;2080474;28;20101;-74
2021/03/07 04:05:48;;;;;;;16.02;11.88;;;-0.70;99.90;;;;;;2080438;28;20022;-74
2021/03/07 04:06:49;;;;;;;15.75;13.05;;;-0.70;99.90;;;;;;2080034;28;20064;-74
2021/03/07 04:07:54;;;;;;;21.45;13.63;;;-0.70;99.90;;;;;;2080529;28;20112;-74
2021/03/07 04:08:58;;;;;;;14.63;10.85;;;-0.70;99.90;;;;;;2080948;28;20043;-74
2021/03/07 04:10:01;;;;;;;17.88;13.05;;;-0.70;99.90;;;;;;2081007;28;20032;-74
2021/03/07 04:11:02;;;;;;;18.30;14.05;;;-0.80;99.90;;;;;;2080635;28;20417;-74
2021/03/07 04:12:07;;;;;;;16.75;13.68;;;-0.80;99.90;;;;;;2080663;28;20484;-73
2021/03/07 04:13:10;;;;;;;19.25;13.57;;;-0.70;99.90;;;;;;2080341;28;20380;-74
2021/03/07 04:14:18;;;;;;;18.30;13.85;;;-0.70;99.90;;;;;;2080791;28;20026;-73
2021/03/07 04:15:27;;;;;;;18.23;14.38;;;-0.80;99.90;;;;;;2080846;28;20021;-74
2021/03/07 04:16:29;;;;;;;16.85;13.43;;;-0.80;99.90;;;;;;2080813;28;20578;-74
2021/03/07 04:17:32;;;;;;;15.95;11.48;;;-0.80;99.90;;;;;;2080470;28;20036;-75
2021/03/07 04:18:36;;;;;;;15.98;12.52;;;-0.80;99.90;;;;;;2080674;28;20080;-74
2021/03/07 04:19:41;;;;;;;19.25;13.77;;;-0.80;99.90;;;;;;2080795;28;20057;-74
2021/03/07 04:20:44;;;;;;;20.10;14.75;;;-0.80;99.90;;;;;;2080998;28;20022;-74
2021/03/07 04:21:48;;;;;;;18.98;15.32;;;-0.80;99.90;;;;;;2080840;28;20022;-74
2021/03/07 04:22:52;;;;;;;19.90;14.30;;;-0.80;99.90;;;;;;2080008;28;20049;-74
2021/03/07 04:23:54;;;;;;;16.92;12.80;;;-0.80;99.90;;;;;;2080011;28;20021;-73
2021/03/07 04:24:58;;;;;;;17.40;13.20;;;-0.80;99.90;;;;;;2080817;28;20021;-74
2021/03/07 04:25:59;;;;;;;18.60;13.77;;;-0.70;99.90;;;;;;2080915;28;20030;-74
2021/03/07 04:27:09;;;;;;;17.35;13.63;;;-0.70;99.90;;;;;;2079810;28;20033;-74
2021/03/07 04:28:11;;;;;;;21.33;14.80;;;-0.80;99.90;;;;;;2080279;28;20029;-74
2021/03/07 04:29:12;;;;;;;16.77;13.55;;;-0.80;99.90;;;;;;2080729;28;20053;-74
2021/03/07 04:30:19;;;;;;;16.17;14.20;;;-0.80;99.90;;;;;;2080635;28;20439;-74
2021/03/07 04:31:23;;;;;;;18.27;13.20;;;-0.80;99.90;;;;;;2080835;28;20091;-74
2021/03/07 04:32:40;;;;;;;16.05;12.98;;;-0.80;99.90;;;;;;2080622;28;20078;-74
2021/03/07 04:33:46;;;;;;;20.33;14.57;;;-0.80;99.90;;;;;;2079652;28;20040;-74
2021/03/07 04:34:48;;;;;;;20.92;13.43;;;-0.80;99.90;;;;;;2080197;28;20025;-74
2021/03/07 04:35:49;;;;;;;17.60;12.73;;;-0.90;99.90;;;;;;2080369;28;20102;-74
2021/03/07 04:36:54;;;;;;;18.80;13.63;;;-0.80;99.90;;;;;;2078509;28;20041;-73
2021/03/07 04:38:03;;;;;;;17.48;13.65;;;-0.90;99.90;;;;;;2080097;28;20029;-74
2021/03/07 04:39:06;;;;;;;15.93;12.10;;;-0.80;99.90;;;;;;2080744;28;20017;-74
2021/03/07 04:40:11;;;;;;;19.10;13.63;;;-0.90;99.90;;;;;;2080554;28;20022;-74
2021/03/07 04:41:17;;;;;;;19.70;14.23;;;-0.90;99.90;;;;;;2080695;28;20036;-74
2021/03/07 04:42:21;;;;;;;14.70;12.85;;;-0.90;99.90;;;;;;2079953;28;20025;-73
2021/03/07 04:43:24;;;;;;;15.90;12.52;;;-0.90;99.90;;;;;;2080702;28;20064;-73
2021/03/07 04:44:28;;;;;;;15.65;13.88;;;-0.90;99.90;;;;;;2080525;28;20025;-74
2021/03/07 04:45:41;;;;;;;17.13;14.27;;;-0.90;99.90;;;;;;2080828;28;20029;-74
2021/03/07 04:46:43;;;;;;;13.88;12.05;;;-0.90;99.90;;;;;;2080503;28;20116;-74
2021/03/07 04:47:45;;;;;;;20.30;13.60;;;-0.90;99.90;;;;;;2080397;28;20096;-74
2021/03/07 04:48:49;;;;;;;15.30;12.95;;;-0.90;99.90;;;;;;2080000;28;20373;-73
2021/03/07 04:49:50;;;;;;;16.33;12.43;;;-0.90;99.90;;;;;;2079859;28;20030;-74
2021/03/07 04:51:01;;;;;;;16.75;12.65;;;-0.90;99.90;;;;;;2079877;28;20047;-74
2021/03/07 04:52:08;;;;;;;14.98;12.52;;;-0.90;99.90;;;;;;2080060;28;20033;-75
2021/03/07 04:53:09;;;;;;;16.48;12.35;;;-0.90;99.90;;;;;;2080076;28;20030;-74
2021/03/07 04:54:10;;;;;;;18.23;13.70;;;-0.90;99.90;;;;;;2080349;28;20025;-74
2021/03/07 04:55:12;;;;;;;16.38;13.13;;;-0.90;99.90;;;;;;2080459;28;20041;-74
2021/03/07 04:56:19;;;;;;;18.15;13.85;;;-0.90;99.90;;;;;;2079672;28;20033;-74
2021/03/07 04:57:22;;;;;;;17.23;13.70;;;-0.90;99.90;;;;;;2079705;28;20075;-73
2021/03/07 04:58:28;;;;;;;14.77;12.25;;;-0.90;99.90;;;;;;2080267;28;20144;-74
2021/03/07 04:59:32;;;;;;;18.27;13.85;;;-0.90;99.90;;;;;;2080439;28;20076;-74
2021/03/07 05:00:33;;;;;;;17.40;14.13;;;-0.90;99.90;;;;;;2080452;28;20018;-74
2021/03/07 05:01:36;;;;;;;16.75;13.98;;;-0.90;99.90;;;;;;2080509;28;20109;-74
2021/03/07 05:02:42;;;;;;;15.90;12.30;;;-0.90;99.90;;;;;;2080305;28;20470;-74
2021/03/07 05:03:46;;;;;;;16.35;12.68;;;-0.90;99.90;;;;;;2080371;28;20556;-74
2021/03/07 05:04:52;;;;;;;15.43;12.80;;;-0.90;99.90;;;;;;2079797;28;20040;-74
2021/03/07 05:06:02;;;;;;;15.98;11.82;;;-0.90;99.90;;;;;;2079960;28;20021;-74
2021/03/07 05:07:06;;;;;;;15.23;12.02;;;-1.00;99.90;;;;;;2080179;28;20028;-73
2021/03/07 05:08:09;;;;;;;15.80;13.98;;;-1.00;99.90;;;;;;2080271;28;20033;-74
2021/03/07 05:09:12;;;;;;;16.40;13.75;;;-0.90;99.90;;;;;;2080363;28;20029;-75
2021/03/07 05:10:16;;;;;;;18.38;13.68;;;-1.00;99.90;;;;;;2080350;28;20489;-74
2021/03/07 05:11:21;;;;;;;16.58;12.80;;;-0.90;99.90;;;;;;2079983;28;20021;-74
2021/03/07 05:12:25;;;;;;;15.70;14.05;;;-1.00;99.90;;;;;;2079474;28;20025;-74
2021/03/07 05:13:34;;;;;;;18.77;12.70;;;-1.00;99.90;;;;;;2079800;28;20022;-73
2021/03/07 05:14:38;;;;;;;14.98;12.27;;;-1.00;99.90;;;;;;2079960;28;20025;-74
2021/03/07 05:15:41;;;;;;;14.85;12.23;;;-1.00;99.90;;;;;;2079689;28;20032;-74
2021/03/07 05:16:42;;;;;;;13.07;11.27;;;-1.00;99.90;;;;;;2080183;28;20025;-74
2021/03/07 05:17:43;;;;;;;14.43;12.50;;;-1.00;99.90;;;;;;2079383;28;20029;-74
2021/03/07 05:18:50;;;;;;;16.45;13.27;;;-1.00;99.90;;;;;;2079557;28;20079;-74
2021/03/07 05:24:02;;;;;;;16.10;12.85;;;-1.20;99.90;;;;;;2080174;28;20373;-74
2021/03/07 05:25:09;;;;;;;16.50;13.38;;;-1.20;99.90;;;;;;2080405;28;20018;-74
2021/03/07 05:26:10;;;;;;;13.05;11.75;;;-1.20;99.90;;;;;;2080218;28;20048;-74
2021/03/07 05:27:14;;;;;;;18.70;11.60;;;-1.20;99.90;;;;;;2079638;28;20080;-74
2021/03/07 05:28:18;;;;;;;18.30;14.20;;;-1.10;99.90;;;;;;2079716;28;20026;-73
2021/03/07 05:29:27;;;;;;;17.50;12.25;;;-1.20;99.90;;;;;;2080023;28;20511;-74
2021/03/07 05:30:32;;;;;;;14.95;11.60;;;-1.10;99.90;;;;;;2080411;28;20055;-74
2021/03/07 05:31:41;;;;;;;17.67;13.77;;;-1.10;99.90;;;;;;2080440;28;20079;-74
2021/03/07 05:32:45;;;;;;;16.70;12.60;;;-1.10;99.90;;;;;;2080278;28;20473;-74
2021/03/07 05:33:49;;;;;;;17.48;12.35;;;-1.20;99.90;;;;;;2079579;28;20032;-74
2021/03/07 05:35:01;;;;;;;16.83;13.38;;;-1.10;99.90;;;;;;2079737;28;20014;-74
2021/03/07 05:36:05;;;;;;;19.15;13.90;;;-1.10;99.90;;;;;;2080211;28;20033;-74
2021/03/07 05:37:09;;;;;;;20.00;12.82;;;-1.10;99.90;;;;;;2079923;28;20017;-74
2021/03/07 05:38:14;;;;;;;15.63;12.68;;;-1.10;99.90;;;;;;2080075;28;20026;-74
2021/03/07 05:39:17;;;;;;;15.55;12.20;;;-1.10;99.90;;;;;;2080308;28;20014;-75
2021/03/07 05:40:23;;;;;;;17.63;12.63;;;-1.10;99.90;;;;;;2080240;28;20032;-74
2021/03/07 05:41:33;;;;;;;16.08;13.38;;;-1.10;99.90;;;;;;2080412;28;20053;-74
2021/03/07 05:42:37;;;;;;;17.00;13.27;;;-1.20;99.90;;;;;;2080220;28;20025;-73
2021/03/07 05:43:48;;;;;;;14.20;11.40;;;-1.20;99.90;;;;;;2080001;28;20060;-74
2021/03/07 05:44:53;;;;;;;17.08;13.07;;;-1.20;99.90;;;;;;2079646;28;20026;-74
2021/03/07 05:45:56;;;;;;;17.73;13.77;;;-1.20;99.90;;;;;;2079934;28;20113;-74
2021/03/07 05:46:59;;;;;;;17.00;13.25;;;-1.20;99.90;;;;;;2079615;28;20513;-73
2021/03/07 05:48:05;;;;;;;19.20;14.48;;;-1.20;99.90;;;;;;2080000;28;20080;-74
2021/03/07 05:49:16;;;;;;;18.02;13.45;;;-1.20;99.90;;;;;;2080040;28;20109;-75
2021/03/07 05:50:26;;;;;;;14.98;13.18;;;-1.20;99.90;;;;;;2080300;28;20048;-74
2021/03/07 05:51:32;;;;;;;14.80;12.35;;;-1.20;99.90;;;;;;2080139;28;20088;-74
2021/03/07 05:52:33;;;;;;;15.48;12.77;;;-1.20;99.90;;;;;;2080205;28;20044;-74
2021/03/07 05:53:34;;;;;;;17.58;12.35;;;-1.20;99.90;;;;;;2079451;28;20029;-74
2021/03/07 05:54:36;;;;;;;16.13;12.88;;;-1.20;99.90;;;;;;2079460;28;20049;-74
2021/03/07 05:55:37;;;;;;;15.80;12.63;;;-1.20;99.90;;;;;;2080173;28;20045;-75
2021/03/07 05:56:45;;;;;;;17.42;13.23;;;-1.20;99.90;;;;;;2081470;28;20100;-74